createdAt,value
2019-01-26T00:01:22.645Z,2.23
2019-01-26T00:03:52.611Z,2.15
2019-01-26T00:06:22.744Z,2.24
2019-01-26T00:08:52.759Z,2.23
2019-01-26T00:11:24.260Z,2.02
2019-01-26T00:13:54.380Z,2.12
2019-01-26T00:16:24.443Z,2.17
2019-01-26T00:18:54.436Z,2.24
2019-01-26T00:21:24.630Z,2.28
2019-01-26T00:23:55.732Z,2.23
2019-01-26T00:26:26.190Z,2.28
2019-01-26T00:28:56.415Z,2.33
2019-01-26T00:31:27.049Z,2.34
2019-01-26T00:33:56.998Z,2.40
2019-01-26T00:36:26.957Z,2.37
2019-01-26T00:38:56.799Z,2.40
2019-01-26T00:41:27.403Z,2.48
2019-01-26T00:43:57.374Z,2.44
2019-01-26T00:46:28.435Z,2.40
2019-01-26T00:48:59.626Z,2.49
2019-01-26T00:51:29.739Z,2.57
2019-01-26T00:53:59.853Z,2.51
2019-01-26T00:56:30.305Z,2.54
2019-01-26T00:59:20.780Z,2.66
2019-01-26T01:01:50.846Z,2.65
2019-01-26T01:04:21.098Z,2.64
2019-01-26T01:06:51.174Z,2.68
2019-01-26T01:09:21.240Z,2.67
2019-01-26T01:11:51.336Z,2.59
2019-01-26T01:14:21.346Z,2.70
2019-01-26T01:16:51.338Z,2.72
2019-01-26T01:19:22.382Z,2.79
2019-01-26T01:21:52.306Z,2.76
2019-01-26T01:24:22.371Z,2.72
2019-01-26T01:26:52.520Z,2.80
2019-01-26T01:29:46.883Z,2.79
2019-01-26T01:32:20.890Z,2.86
2019-01-26T01:34:50.931Z,2.84
2019-01-26T01:37:21.202Z,2.87
2019-01-26T01:39:51.253Z,2.89
2019-01-26T01:42:21.216Z,2.98
2019-01-26T01:44:52.173Z,2.93
2019-01-26T01:47:23.592Z,2.93
2019-01-26T01:49:53.615Z,2.94
2019-01-26T01:52:24.570Z,3.05
2019-01-26T01:54:54.546Z,2.97
2019-01-26T01:57:24.608Z,3.05
2019-01-26T01:59:55.701Z,3.12
2019-01-26T02:02:25.794Z,3.09
2019-01-26T02:04:55.782Z,3.04
2019-01-26T02:07:26.082Z,3.11
2019-01-26T02:09:56.125Z,3.02
2019-01-26T02:12:26.172Z,3.08
2019-01-26T02:14:56.107Z,3.19
2019-01-26T02:17:26.047Z,3.10
2019-01-26T02:19:56.119Z,3.10
2019-01-26T02:22:26.173Z,3.11
2019-01-26T02:24:56.799Z,3.11
2019-01-26T02:27:46.739Z,3.11
2019-01-26T02:30:19.236Z,3.16
2019-01-26T02:32:49.135Z,3.15
2019-01-26T02:35:19.110Z,3.14
2019-01-26T02:37:49.140Z,3.23
2019-01-26T02:40:19.093Z,3.32
2019-01-26T02:42:49.116Z,3.27
2019-01-26T02:45:23.240Z,3.25
2019-01-26T02:47:57.033Z,3.37
2019-01-26T02:50:30.748Z,3.42
2019-01-26T02:53:00.965Z,3.41
2019-01-26T02:55:32.372Z,3.34
2019-01-26T02:58:02.621Z,3.44
2019-01-26T03:00:32.563Z,3.42
2019-01-26T03:03:02.551Z,3.48
2019-01-26T03:05:34.185Z,3.50
2019-01-26T03:08:04.221Z,3.46
2019-01-26T03:10:34.242Z,3.45
2019-01-26T03:13:04.561Z,3.47
2019-01-26T03:15:34.655Z,3.52
2019-01-26T03:18:04.607Z,3.52
2019-01-26T03:20:35.617Z,3.54
2019-01-26T03:23:05.657Z,3.56
2019-01-26T03:25:35.589Z,3.56
2019-01-26T03:28:05.791Z,3.54
2019-01-26T03:30:35.687Z,3.64
2019-01-26T03:33:06.366Z,3.47
2019-01-26T03:35:40.238Z,3.56
2019-01-26T03:38:10.130Z,3.54
2019-01-26T03:40:41.180Z,3.59
2019-01-26T03:43:13.883Z,3.66
2019-01-26T03:45:43.998Z,3.63
2019-01-26T03:48:13.832Z,3.70
2019-01-26T03:50:45.287Z,3.78
2019-01-26T03:53:15.268Z,3.70
2019-01-26T03:55:50.115Z,3.73
2019-01-26T03:58:20.072Z,3.84
2019-01-26T04:00:49.987Z,3.89
2019-01-26T04:03:19.895Z,3.95
2019-01-26T04:05:50.244Z,3.91
2019-01-26T04:08:20.214Z,3.88
2019-01-26T04:10:51.630Z,3.75
2019-01-26T04:13:21.581Z,3.88
2019-01-26T04:15:51.417Z,3.91
2019-01-26T04:18:21.383Z,3.92
2019-01-26T04:20:51.525Z,4.02
2019-01-26T04:23:21.472Z,4.03
2019-01-26T04:25:51.649Z,4.03
2019-01-26T04:28:21.801Z,4.04
2019-01-26T04:30:51.719Z,3.97
2019-01-26T04:33:21.719Z,4.04
2019-01-26T04:35:52.043Z,4.02
2019-01-26T04:38:21.956Z,3.92
2019-01-26T04:40:52.322Z,3.97
2019-01-26T04:43:26.270Z,3.94
2019-01-26T04:45:57.536Z,3.96
2019-01-26T04:48:27.461Z,3.99
2019-01-26T04:50:57.436Z,4.07
2019-01-26T04:53:27.381Z,4.14
2019-01-26T04:55:57.227Z,4.21
2019-01-26T04:58:27.131Z,4.14
2019-01-26T05:00:57.193Z,4.24
2019-01-26T05:03:27.104Z,4.10
2019-01-26T05:05:56.951Z,4.10
2019-01-26T05:08:26.839Z,4.13
2019-01-26T05:10:56.836Z,4.21
2019-01-26T05:13:35.219Z,4.18
2019-01-26T05:16:05.164Z,4.20
2019-01-26T05:18:50.561Z,4.29
2019-01-26T05:21:20.542Z,4.42
2019-01-26T05:23:51.323Z,4.43
2019-01-26T05:26:21.958Z,4.39
2019-01-26T05:28:52.314Z,4.40
2019-01-26T05:31:22.302Z,4.44
2019-01-26T05:33:54.546Z,4.53
2019-01-26T05:36:26.416Z,4.44
2019-01-26T05:38:56.373Z,4.63
2019-01-26T05:41:26.288Z,4.67
2019-01-26T05:43:59.147Z,4.74
2019-01-26T05:46:29.160Z,4.79
2019-01-26T05:48:59.106Z,4.81
2019-01-26T05:51:28.928Z,4.84
2019-01-26T05:53:59.280Z,4.81
2019-01-26T05:56:29.714Z,4.84
2019-01-26T05:58:59.823Z,4.92
2019-01-26T06:01:31.096Z,4.98
2019-01-26T06:04:01.108Z,4.90
2019-01-26T06:06:32.149Z,4.97
2019-01-26T06:09:02.265Z,4.94
2019-01-26T06:11:32.635Z,5.00
2019-01-26T06:14:04.170Z,5.01
2019-01-26T06:16:33.986Z,4.93
2019-01-26T06:19:03.934Z,4.98
2019-01-26T06:21:50.111Z,5.06
2019-01-26T06:24:15.422Z,5.01
2019-01-26T06:26:47.908Z,5.09
2019-01-26T06:29:17.909Z,5.09
2019-01-26T06:31:47.885Z,5.05
2019-01-26T06:34:17.895Z,4.96
2019-01-26T06:36:48.148Z,5.09
2019-01-26T06:39:18.563Z,5.12
2019-01-26T06:41:53.635Z,5.16
2019-01-26T06:44:24.392Z,5.19
2019-01-26T06:46:54.303Z,5.12
2019-01-26T06:49:28.103Z,5.20
2019-01-26T06:52:26.108Z,5.23
2019-01-26T06:54:56.083Z,5.19
2019-01-26T06:57:27.620Z,5.18
2019-01-26T06:59:59.589Z,5.19
2019-01-26T07:02:57.612Z,5.08
2019-01-26T07:05:55.010Z,5.15
2019-01-26T07:08:26.123Z,5.12
2019-01-26T07:10:56.089Z,5.07
2019-01-26T07:16:55.766Z,5.05
2019-01-26T07:19:57.208Z,5.10
2019-01-26T07:22:27.153Z,5.13
2019-01-26T07:24:57.086Z,5.08
2019-01-26T07:28:03.427Z,5.19
2019-01-26T07:30:41.479Z,5.23
2019-01-26T07:33:21.121Z,5.23
2019-01-26T07:35:51.329Z,5.00
2019-01-26T07:38:28.901Z,5.18
2019-01-26T07:41:08.399Z,5.15
2019-01-26T07:43:40.102Z,5.14
2019-01-26T07:47:11.909Z,5.08
2019-01-26T07:49:42.154Z,5.04
2019-01-26T07:52:13.939Z,5.05
2019-01-26T07:54:49.222Z,5.03
2019-01-26T07:57:19.583Z,5.09
2019-01-26T08:03:14.911Z,5.20
2019-01-26T08:05:45.159Z,5.32
2019-01-26T08:08:17.511Z,5.21
2019-01-26T08:10:49.764Z,5.28
2019-01-26T08:13:24.345Z,5.31
2019-01-26T08:15:54.338Z,5.39
2019-01-26T08:18:24.412Z,5.31
2019-01-26T08:20:55.130Z,5.47
2019-01-26T08:23:25.079Z,5.44
2019-01-26T08:25:58.183Z,5.57
2019-01-26T08:28:35.550Z,5.58
2019-01-26T08:31:07.666Z,5.63
2019-01-26T08:33:37.681Z,5.58
2019-01-26T08:36:07.663Z,5.70
2019-01-26T08:38:48.569Z,5.71
2019-01-26T08:41:24.921Z,5.67
2019-01-26T08:43:56.429Z,5.78
2019-01-26T08:46:27.862Z,5.73
2019-01-26T08:48:57.899Z,5.78
2019-01-26T08:51:28.061Z,5.71
2019-01-26T08:54:21.521Z,5.80
2019-01-26T08:56:51.491Z,5.77
2019-01-26T08:59:21.506Z,5.82
2019-01-26T09:01:55.079Z,5.79
2019-01-26T09:04:29.331Z,5.85
2019-01-26T09:07:02.745Z,5.89
2019-01-26T09:09:33.086Z,5.93
2019-01-26T09:12:04.531Z,5.84
2019-01-26T09:14:35.459Z,5.88
2019-01-26T09:17:06.494Z,6.03
2019-01-26T09:19:38.243Z,6.00
2019-01-26T09:22:08.414Z,5.98
2019-01-26T09:24:42.287Z,6.10
2019-01-26T09:27:13.315Z,6.01
2019-01-26T09:29:45.506Z,6.02
2019-01-26T09:32:17.009Z,6.07
2019-01-26T09:34:47.646Z,6.07
2019-01-26T09:37:17.889Z,6.00
2019-01-26T09:39:47.926Z,6.06
2019-01-26T09:42:17.979Z,6.07
2019-01-26T09:44:47.980Z,6.14
2019-01-26T09:47:18.008Z,6.13
2019-01-26T09:49:48.023Z,6.09
2019-01-26T09:52:21.794Z,6.07
2019-01-26T09:54:51.882Z,6.14
2019-01-26T09:57:23.706Z,6.09
2019-01-26T09:59:53.744Z,6.17
2019-01-26T10:02:23.840Z,6.08
2019-01-26T10:04:53.877Z,6.10
2019-01-26T10:07:26.462Z,6.14
2019-01-26T10:09:56.755Z,6.17
2019-01-26T10:12:26.698Z,6.26
2019-01-26T10:14:56.641Z,6.19
2019-01-26T10:17:30.644Z,6.23
2019-01-26T10:20:00.657Z,6.12
2019-01-26T10:22:31.746Z,6.12
2019-01-26T10:25:01.705Z,6.23
2019-01-26T10:27:34.027Z,6.23
2019-01-26T10:30:05.317Z,6.28
2019-01-26T10:32:35.334Z,6.33
2019-01-26T10:35:05.564Z,6.39
2019-01-26T10:37:35.588Z,6.32
2019-01-26T10:40:08.142Z,6.31
2019-01-26T10:42:38.344Z,6.32
2019-01-26T10:45:14.237Z,6.34
2019-01-26T10:47:45.648Z,6.35
2019-01-26T10:50:15.622Z,6.35
2019-01-26T10:52:45.701Z,6.36
2019-01-26T10:55:17.584Z,6.36
2019-01-26T10:57:47.555Z,6.35
2019-01-26T11:00:17.674Z,6.49
2019-01-26T11:02:47.587Z,6.40
2019-01-26T11:05:17.524Z,6.45
2019-01-26T11:07:49.774Z,6.51
2019-01-26T11:10:21.811Z,6.52
2019-01-26T11:12:57.766Z,6.49
2019-01-26T11:15:27.679Z,6.53
2019-01-26T11:17:57.541Z,6.60
2019-01-26T11:20:28.988Z,6.56
2019-01-26T11:22:59.423Z,6.51
2019-01-26T11:25:30.564Z,6.48
2019-01-26T11:28:04.221Z,6.55
2019-01-26T11:30:35.123Z,6.58
2019-01-26T11:33:05.135Z,6.54
2019-01-26T11:35:34.928Z,6.58
2019-01-26T11:38:04.767Z,6.61
2019-01-26T11:40:34.674Z,6.56
2019-01-26T11:43:07.810Z,6.54
2019-01-26T11:46:03.141Z,6.55
2019-01-26T11:48:38.274Z,6.54
2019-01-26T11:51:28.185Z,6.53
2019-01-26T11:53:58.661Z,6.57
2019-01-26T11:56:38.797Z,6.59
2019-01-26T11:59:11.484Z,6.49
2019-01-26T12:01:57.599Z,6.59
2019-01-26T12:05:07.715Z,6.52
2019-01-26T12:07:39.416Z,6.66
2019-01-26T12:10:14.833Z,6.55
2019-01-26T12:12:45.397Z,6.54
2019-01-26T12:15:15.965Z,6.50
2019-01-26T12:17:45.931Z,6.59
2019-01-26T12:20:18.128Z,6.63
2019-01-26T12:22:49.726Z,6.66
2019-01-26T12:25:19.917Z,6.71
2019-01-26T12:27:51.024Z,6.67
2019-01-26T12:30:22.476Z,6.81
2019-01-26T12:32:55.543Z,6.78
2019-01-26T12:35:25.533Z,6.79
2019-01-26T12:37:58.642Z,6.83
2019-01-26T12:40:28.572Z,6.73
2019-01-26T12:42:59.303Z,6.71
2019-01-26T12:45:34.096Z,6.63
2019-01-26T12:48:04.291Z,6.67
2019-01-26T12:50:37.005Z,6.75
2019-01-26T12:53:08.016Z,6.73
2019-01-26T12:55:40.447Z,6.71
2019-01-26T12:58:11.931Z,6.67
2019-01-26T13:00:41.791Z,6.74
2019-01-26T13:03:11.763Z,6.68
2019-01-26T13:05:42.473Z,6.78
2019-01-26T13:08:20.101Z,6.75
2019-01-26T13:10:52.860Z,6.67
2019-01-26T13:13:23.143Z,6.81
2019-01-26T13:15:53.152Z,6.68
2019-01-26T13:18:23.184Z,6.69
2019-01-26T13:20:53.270Z,6.80
2019-01-26T13:23:23.558Z,6.77
2019-01-26T13:25:53.732Z,6.79
2019-01-26T13:28:23.777Z,6.82
2019-01-26T13:30:53.839Z,6.85
2019-01-26T13:33:24.294Z,6.74
2019-01-26T13:35:54.333Z,6.77
2019-01-26T13:38:25.317Z,6.83
2019-01-26T13:40:55.647Z,6.64
2019-01-26T13:43:25.686Z,6.72
2019-01-26T13:45:55.669Z,6.74
2019-01-26T13:48:25.768Z,6.71
2019-01-26T13:50:56.049Z,6.67
2019-01-26T13:53:26.110Z,6.69
2019-01-26T13:55:56.443Z,6.65
2019-01-26T13:58:26.445Z,6.65
2019-01-26T14:00:56.857Z,6.61
2019-01-26T14:03:27.020Z,6.71
2019-01-26T14:05:57.212Z,6.75
2019-01-26T14:08:27.339Z,6.73
2019-01-26T14:10:57.396Z,6.80
2019-01-26T14:13:27.327Z,6.84
2019-01-26T14:15:57.346Z,6.79
2019-01-26T14:18:27.450Z,6.75
2019-01-26T14:20:58.276Z,6.81
2019-01-26T14:23:28.210Z,6.74
2019-01-26T14:25:58.213Z,6.75
2019-01-26T14:28:29.048Z,6.68
2019-01-26T14:31:01.313Z,6.63
2019-01-26T14:33:31.409Z,6.73
2019-01-26T14:36:01.246Z,6.67
2019-01-26T14:38:31.487Z,6.66
2019-01-26T14:41:01.931Z,6.61
2019-01-26T14:43:35.332Z,6.50
2019-01-26T14:46:05.380Z,6.54
2019-01-26T14:48:36.416Z,6.61
2019-01-26T14:51:06.575Z,6.60
2019-01-26T14:53:36.570Z,6.57
2019-01-26T14:56:08.948Z,6.53
2019-01-26T14:58:39.166Z,6.62
2019-01-26T15:01:09.270Z,6.50
2019-01-26T15:03:39.175Z,6.54
2019-01-26T15:06:11.613Z,6.56
2019-01-26T15:08:41.585Z,6.57
2019-01-26T15:11:11.652Z,6.59
2019-01-26T15:13:41.874Z,6.58
2019-01-26T15:16:11.939Z,6.52
2019-01-26T15:18:41.935Z,6.60
2019-01-26T15:21:11.886Z,6.51
2019-01-26T15:23:41.869Z,6.66
2019-01-26T15:26:13.390Z,6.55
2019-01-26T15:28:43.536Z,6.61
2019-01-26T15:31:13.909Z,6.59
2019-01-26T15:33:45.395Z,6.61
2019-01-26T15:36:15.344Z,6.53
2019-01-26T15:38:47.681Z,6.58
2019-01-26T15:41:17.657Z,6.59
2019-01-26T15:43:47.649Z,6.60
2019-01-26T15:46:18.489Z,6.59
2019-01-26T15:48:48.654Z,6.65
2019-01-26T15:51:18.659Z,6.55
2019-01-26T15:53:48.684Z,6.58
2019-01-26T15:56:18.817Z,6.65
2019-01-26T15:58:48.798Z,6.58
2019-01-26T16:01:18.913Z,6.51
2019-01-26T16:03:48.914Z,6.48
2019-01-26T16:06:18.937Z,6.54
2019-01-26T16:08:48.978Z,6.55
2019-01-26T16:11:19.190Z,6.46
2019-01-26T16:13:49.245Z,6.45
2019-01-26T16:16:19.120Z,6.46
2019-01-26T16:18:49.157Z,6.52
2019-01-26T16:21:19.136Z,6.50
2019-01-26T16:23:49.198Z,6.49
2019-01-26T16:26:19.174Z,6.58
2019-01-26T16:28:49.185Z,6.62
2019-01-26T16:31:19.266Z,6.53
2019-01-26T16:33:50.341Z,6.42
2019-01-26T16:36:20.382Z,6.51
2019-01-26T16:38:50.480Z,6.48
2019-01-26T16:41:20.409Z,6.42
2019-01-26T16:43:50.388Z,6.38
2019-01-26T16:46:20.274Z,6.43
2019-01-26T16:48:50.215Z,6.49
2019-01-26T16:51:20.150Z,6.41
2019-01-26T16:53:50.024Z,6.49
2019-01-26T16:56:20.370Z,6.57
2019-01-26T16:58:50.392Z,6.45
2019-01-26T17:01:20.319Z,6.55
2019-01-26T17:03:50.283Z,6.61
2019-01-26T17:06:20.231Z,6.54
2019-01-26T17:08:50.187Z,6.59
2019-01-26T17:11:20.169Z,6.56
2019-01-26T17:13:50.994Z,6.59
2019-01-26T17:16:22.467Z,6.58
2019-01-26T17:18:52.835Z,6.52
2019-01-26T17:21:23.647Z,6.60
2019-01-26T17:23:53.587Z,6.55
2019-01-26T17:26:23.583Z,6.56
2019-01-26T17:28:53.401Z,6.63
2019-01-26T17:31:23.517Z,6.62
2019-01-26T17:33:53.432Z,6.61
2019-01-26T17:36:23.416Z,6.66
2019-01-26T17:38:54.695Z,6.59
2019-01-26T17:41:25.311Z,6.57
2019-01-26T17:43:55.284Z,6.58
2019-01-26T17:46:25.316Z,6.57
2019-01-26T17:48:55.420Z,6.56
2019-01-26T17:51:25.379Z,6.62
2019-01-26T17:53:56.995Z,6.68
2019-01-26T17:56:27.028Z,6.73
2019-01-26T17:58:59.853Z,6.58
2019-01-26T18:01:30.576Z,6.68
2019-01-26T18:04:01.444Z,6.63
2019-01-26T18:06:33.148Z,6.77
2019-01-26T18:09:04.130Z,6.82
2019-01-26T18:11:35.214Z,6.83
2019-01-26T18:14:08.192Z,6.76
2019-01-26T18:16:38.211Z,6.75
2019-01-26T18:19:08.330Z,6.70
2019-01-26T18:21:38.446Z,6.67
2019-01-26T18:24:08.463Z,6.59
2019-01-26T18:26:38.446Z,6.66
2019-01-26T18:29:08.487Z,6.54
2019-01-26T18:31:38.409Z,6.67
2019-01-26T18:34:08.541Z,6.59
2019-01-26T18:36:38.610Z,6.69
2019-01-26T18:39:09.531Z,6.58
2019-01-26T18:41:39.985Z,6.58
2019-01-26T18:44:10.043Z,6.71
2019-01-26T18:46:40.341Z,6.63
2019-01-26T18:49:14.616Z,6.61
2019-01-26T18:51:50.890Z,6.66
2019-01-26T18:54:21.162Z,6.83
2019-01-26T18:56:51.051Z,6.84
2019-01-26T18:59:21.274Z,6.85
2019-01-26T19:01:51.277Z,6.81
2019-01-26T19:04:26.503Z,6.86
2019-01-26T19:06:59.466Z,6.65
2019-01-26T19:09:31.473Z,6.79
2019-01-26T19:12:05.329Z,6.74
2019-01-26T19:14:36.819Z,6.67
2019-01-26T19:17:06.895Z,6.82
2019-01-26T19:19:42.381Z,6.88
2019-01-26T19:22:15.459Z,6.89
2019-01-26T19:24:45.477Z,6.86
2019-01-26T19:27:16.414Z,6.97
2019-01-26T19:29:48.357Z,6.88
2019-01-26T19:32:18.535Z,6.96
2019-01-26T19:34:53.782Z,6.86
2019-01-26T19:37:31.559Z,6.84
2019-01-26T19:40:05.625Z,6.76
2019-01-26T19:42:37.247Z,6.67
2019-01-26T19:45:15.253Z,6.57
2019-01-26T19:47:48.216Z,6.60
2019-01-26T19:50:23.226Z,6.53
2019-01-26T19:52:55.811Z,6.63
2019-01-26T19:55:30.665Z,6.63
2019-01-26T19:58:00.805Z,6.55
2019-01-26T20:00:30.759Z,6.66
2019-01-26T20:03:02.483Z,6.65
2019-01-26T20:05:40.361Z,6.68
2019-01-26T20:08:10.352Z,6.74
2019-01-26T20:10:43.416Z,6.73
2019-01-26T20:13:15.038Z,6.65
2019-01-26T20:15:45.071Z,6.81
2019-01-26T20:18:15.045Z,6.76
2019-01-26T20:20:45.046Z,6.83
2019-01-26T20:23:20.512Z,6.92
2019-01-26T20:25:55.175Z,6.97
2019-01-26T20:28:26.737Z,6.89
2019-01-26T20:30:56.790Z,6.83
2019-01-26T20:33:26.709Z,6.83
2019-01-26T20:35:59.589Z,6.87
2019-01-26T20:38:36.990Z,6.82
2019-01-26T20:41:12.024Z,6.82
2019-01-26T20:43:42.587Z,6.82
2019-01-26T20:46:19.767Z,6.81
2019-01-26T20:48:54.450Z,6.88
2019-01-26T20:51:26.827Z,6.83
2019-01-26T20:54:11.990Z,6.68
2019-01-26T20:56:53.962Z,6.64
2019-01-26T20:59:24.174Z,6.69
2019-01-26T21:01:54.139Z,6.86
2019-01-26T21:04:27.073Z,6.96
2019-01-26T21:06:58.056Z,6.86
2019-01-26T21:09:32.067Z,6.86
2019-01-26T21:12:08.900Z,6.83
2019-01-26T21:14:34.673Z,6.82
2019-01-26T21:17:04.711Z,6.88
2019-01-26T21:19:44.535Z,6.97
2019-01-26T21:22:21.308Z,6.88
2019-01-26T21:24:51.278Z,6.86
2019-01-26T21:27:22.625Z,6.76
2019-01-26T21:29:52.936Z,6.79
2019-01-26T21:32:22.928Z,6.78
2019-01-26T21:34:52.946Z,6.74
2019-01-26T21:37:23.031Z,6.76
2019-01-26T21:39:53.033Z,6.80
2019-01-26T21:42:23.006Z,6.82
2019-01-26T21:44:53.016Z,6.81
2019-01-26T21:47:23.182Z,6.77
2019-01-26T21:49:53.221Z,6.72
2019-01-26T21:52:23.650Z,6.76
2019-01-26T21:54:54.976Z,6.76
2019-01-26T21:57:25.045Z,6.74
2019-01-26T21:59:56.766Z,6.70
2019-01-26T22:02:26.980Z,6.63
2019-01-26T22:04:58.420Z,6.64
2019-01-26T22:07:28.441Z,6.60
2019-01-26T22:09:58.449Z,6.65
2019-01-26T22:12:28.405Z,6.72
2019-01-26T22:14:58.381Z,6.83
2019-01-26T22:17:28.319Z,6.83
2019-01-26T22:19:58.449Z,6.78
2019-01-26T22:22:28.506Z,6.71
2019-01-26T22:25:02.117Z,6.70
2019-01-26T22:27:32.013Z,6.60
2019-01-26T22:30:03.892Z,6.66
2019-01-26T22:32:33.935Z,6.62
2019-01-26T22:35:03.903Z,6.55
2019-01-26T22:37:33.980Z,6.57
2019-01-26T22:40:04.033Z,6.48
2019-01-26T22:42:34.421Z,6.66
2019-01-26T22:45:04.405Z,6.57
2019-01-26T22:47:34.454Z,6.62
2019-01-26T22:50:05.183Z,6.50
2019-01-26T22:52:35.199Z,6.54
2019-01-26T22:55:07.529Z,6.68
2019-01-26T22:57:37.475Z,6.67
2019-01-26T23:00:38.620Z,6.67
2019-01-26T23:03:10.295Z,6.53
2019-01-26T23:06:02.075Z,6.62
2019-01-26T23:08:32.115Z,6.67
2019-01-26T23:11:32.727Z,6.58
2019-01-26T23:14:46.289Z,6.62
2019-01-26T23:17:44.237Z,6.58
2019-01-26T23:21:04.233Z,6.56
2019-01-26T23:23:59.467Z,6.36
2019-01-26T23:26:42.711Z,6.60
2019-01-26T23:29:49.659Z,6.66
2019-01-26T23:32:20.777Z,6.62
2019-01-26T23:34:50.666Z,6.20
2019-01-26T23:37:20.614Z,6.36
2019-01-26T23:39:50.517Z,6.37
2019-01-26T23:42:20.333Z,6.40
2019-01-26T23:44:51.183Z,6.36
2019-01-26T23:47:21.257Z,6.12
2019-01-26T23:49:51.205Z,6.17
2019-01-26T23:52:21.149Z,6.00
2019-01-26T23:54:51.098Z,6.14
2019-01-26T23:57:20.936Z,6.22
2019-01-26T23:59:50.919Z,6.32
